createdAt,value
2022-12-25T00:00:21.472Z,7.20
2022-12-25T00:02:54.152Z,5.93
2022-12-25T00:05:22.353Z,7.57
2022-12-25T00:07:50.862Z,6.93
2022-12-25T00:10:19.558Z,6.50
2022-12-25T00:12:47.735Z,5.93
2022-12-25T00:15:15.920Z,6.90
2022-12-25T00:17:44.133Z,7.17
2022-12-25T00:20:13.915Z,6.90
2022-12-25T00:22:42.126Z,6.90
2022-12-25T00:25:11.049Z,6.70
2022-12-25T00:27:39.172Z,6.13
2022-12-25T00:30:08.844Z,7.30
2022-12-25T00:32:37.406Z,5.90
2022-12-25T00:35:06.873Z,6.70
2022-12-25T00:37:36.435Z,5.50
2022-12-25T00:40:05.041Z,5.97
2022-12-25T00:42:33.335Z,5.97
2022-12-25T00:45:01.797Z,6.80
2022-12-25T00:47:30.908Z,6.03
2022-12-25T00:49:59.190Z,6.00
2022-12-25T00:52:27.462Z,8.17
2022-12-25T00:54:56.995Z,7.13
2022-12-25T00:57:25.275Z,6.03
2022-12-25T00:59:53.508Z,5.60
2022-12-25T01:02:24.553Z,5.63
2022-12-25T01:04:54.737Z,5.70
2022-12-25T01:07:24.516Z,6.30
2022-12-25T01:10:24.645Z,5.73
2022-12-25T01:12:54.219Z,5.23
2022-12-25T01:15:22.546Z,5.37
2022-12-25T01:17:50.792Z,5.33
2022-12-25T01:20:19.878Z,5.30
2022-12-25T01:22:48.122Z,4.30
2022-12-25T01:25:16.352Z,4.90
2022-12-25T01:27:44.504Z,5.27
2022-12-25T01:30:14.762Z,4.63
2022-12-25T01:32:42.919Z,4.73
2022-12-25T01:35:12.067Z,4.47
2022-12-25T01:37:40.527Z,5.00
2022-12-25T01:40:09.974Z,3.87
2022-12-25T01:42:38.655Z,4.23
2022-12-25T01:45:43.271Z,4.53
2022-12-25T01:48:15.878Z,4.70
2022-12-25T01:50:47.196Z,3.87
2022-12-25T01:53:15.577Z,4.53
2022-12-25T01:55:45.591Z,3.77
2022-12-25T01:58:14.163Z,3.60
2022-12-25T02:00:43.924Z,4.00
2022-12-25T02:03:12.441Z,4.70
2022-12-25T02:05:40.867Z,4.33
2022-12-25T02:08:12.840Z,5.63
2022-12-25T02:10:43.157Z,3.80
2022-12-25T02:13:12.425Z,4.70
2022-12-25T02:15:53.754Z,4.90
2022-12-25T02:18:34.597Z,4.30
2022-12-25T02:21:45.880Z,4.17
2022-12-25T02:24:47.138Z,4.37
2022-12-25T02:27:23.169Z,4.33
2022-12-25T02:29:56.390Z,4.80
2022-12-25T02:32:29.657Z,3.60
2022-12-25T02:35:02.319Z,4.03
2022-12-25T02:37:36.891Z,3.87
2022-12-25T02:40:11.675Z,3.10
2022-12-25T02:43:10.997Z,3.93
2022-12-25T02:46:05.775Z,4.70
2022-12-25T02:48:55.548Z,3.70
2022-12-25T02:51:44.913Z,4.67
2022-12-25T02:54:34.445Z,3.93
2022-12-25T02:57:26.333Z,3.47
2022-12-25T03:00:15.311Z,4.00
2022-12-25T03:03:04.039Z,3.43
2022-12-25T03:05:53.174Z,3.40
2022-12-25T03:08:25.697Z,3.53
2022-12-25T03:11:18.016Z,4.57
2022-12-25T03:13:49.710Z,4.20
2022-12-25T03:16:35.975Z,3.83
2022-12-25T03:19:25.897Z,4.17
2022-12-25T03:22:13.122Z,4.50
2022-12-25T03:25:10.892Z,4.30
2022-12-25T03:27:40.512Z,5.00
2022-12-25T03:30:27.610Z,4.20
2022-12-25T03:33:23.369Z,4.13
2022-12-25T03:36:04.387Z,4.40
2022-12-25T03:39:08.332Z,3.90
2022-12-25T03:42:01.496Z,4.20
2022-12-25T03:45:10.610Z,3.90
2022-12-25T03:48:03.225Z,3.80
2022-12-25T03:50:53.189Z,3.50
2022-12-25T03:53:42.964Z,3.53
2022-12-25T03:56:30.119Z,4.20
2022-12-25T03:59:23.159Z,3.93
2022-12-25T04:02:10.252Z,3.90
2022-12-25T04:04:57.034Z,4.90
2022-12-25T04:07:43.193Z,3.27
2022-12-25T04:10:45.380Z,3.90
2022-12-25T04:13:31.313Z,3.70
2022-12-25T04:16:17.119Z,3.40
2022-12-25T04:19:17.507Z,3.33
2022-12-25T04:22:03.492Z,3.60
2022-12-25T04:24:45.594Z,3.60
2022-12-25T04:27:32.831Z,3.80
2022-12-25T04:30:23.726Z,3.50
2022-12-25T04:33:09.579Z,3.60
2022-12-25T04:35:55.058Z,3.50
2022-12-25T04:38:24.508Z,3.70
2022-12-25T04:40:52.710Z,3.20
2022-12-25T04:43:24.983Z,4.20
2022-12-25T04:45:54.484Z,3.60
2022-12-25T04:48:22.809Z,3.53
2022-12-25T04:50:51.312Z,3.93
2022-12-25T04:53:19.993Z,3.47
2022-12-25T04:55:48.122Z,3.27
2022-12-25T04:58:16.382Z,4.13
2022-12-25T05:00:45.977Z,3.60
2022-12-25T05:03:14.304Z,3.73
2022-12-25T05:05:42.588Z,3.30
2022-12-25T05:08:11.391Z,3.10
2022-12-25T05:10:41.072Z,3.00
2022-12-25T05:13:09.292Z,3.10
2022-12-25T05:15:40.584Z,2.93
2022-12-25T05:18:11.102Z,3.00
2022-12-25T05:20:40.379Z,3.03
2022-12-25T05:23:10.369Z,3.00
2022-12-25T05:25:40.937Z,3.60
2022-12-25T05:28:09.239Z,2.23
2022-12-25T05:30:37.427Z,3.53
2022-12-25T05:33:05.879Z,2.77
2022-12-25T05:35:37.540Z,2.80
2022-12-25T05:38:06.389Z,4.03
2022-12-25T05:40:35.048Z,3.27
2022-12-25T05:43:03.306Z,3.50
2022-12-25T05:45:32.228Z,3.00
2022-12-25T05:48:00.389Z,3.10
2022-12-25T05:50:28.637Z,3.90
2022-12-25T05:53:01.515Z,3.50
2022-12-25T05:55:34.690Z,3.73
2022-12-25T05:58:03.328Z,2.90
2022-12-25T06:00:32.112Z,3.50
2022-12-25T06:03:00.704Z,2.63
2022-12-25T06:05:29.148Z,3.10
2022-12-25T06:07:58.783Z,3.27
2022-12-25T06:10:27.014Z,2.80
2022-12-25T06:12:55.964Z,3.47
2022-12-25T06:15:24.179Z,3.23
2022-12-25T06:17:52.313Z,2.80
2022-12-25T06:20:20.645Z,2.93
2022-12-25T06:22:48.939Z,3.90
2022-12-25T06:25:18.839Z,3.17
2022-12-25T06:27:47.014Z,3.37
2022-12-25T06:30:15.931Z,2.77
2022-12-25T06:32:44.191Z,3.23
2022-12-25T06:35:12.403Z,3.10
2022-12-25T06:37:40.708Z,3.17
2022-12-25T06:40:09.981Z,3.57
2022-12-25T06:42:39.667Z,3.20
2022-12-25T06:45:08.821Z,2.70
2022-12-25T06:47:38.181Z,3.13
2022-12-25T06:50:07.867Z,3.03
2022-12-25T06:52:36.202Z,2.80
2022-12-25T06:55:04.613Z,3.00
2022-12-25T06:57:33.360Z,2.30
2022-12-25T07:00:03.544Z,3.03
2022-12-25T07:02:34.485Z,3.00
2022-12-25T07:05:04.781Z,3.20
2022-12-25T07:07:33.055Z,3.13
2022-12-25T07:10:01.304Z,2.73
2022-12-25T07:12:29.540Z,3.40
2022-12-25T07:14:57.841Z,2.97
2022-12-25T07:17:27.465Z,3.00
2022-12-25T07:19:56.537Z,3.60
2022-12-25T07:22:25.059Z,2.73
2022-12-25T07:24:53.347Z,3.87
2022-12-25T07:27:21.566Z,2.90
2022-12-25T07:29:50.175Z,2.80
2022-12-25T07:32:18.577Z,3.03
2022-12-25T07:34:48.161Z,3.23
2022-12-25T07:37:16.445Z,2.50
2022-12-25T07:39:44.731Z,2.53
2022-12-25T07:42:12.993Z,3.40
2022-12-25T07:44:41.327Z,4.63
2022-12-25T07:47:09.673Z,3.37
2022-12-25T07:49:38.084Z,4.10
2022-12-25T07:52:07.941Z,3.60
2022-12-25T07:54:36.101Z,3.10
2022-12-25T07:57:04.382Z,3.07
2022-12-25T07:59:32.599Z,3.67
2022-12-25T08:02:01.025Z,3.87
2022-12-25T08:04:29.543Z,3.90
2022-12-25T08:06:57.753Z,3.57
2022-12-25T08:09:27.414Z,5.07
2022-12-25T08:11:55.546Z,4.07
2022-12-25T08:14:23.810Z,4.63
2022-12-25T08:16:52.301Z,4.00
2022-12-25T08:19:20.705Z,5.03
2022-12-25T08:21:48.927Z,4.60
2022-12-25T08:24:17.119Z,3.97
2022-12-25T08:26:46.704Z,4.17
2022-12-25T08:29:15.459Z,5.03
2022-12-25T08:31:46.601Z,4.60
2022-12-25T08:34:15.580Z,5.07
2022-12-25T08:36:43.825Z,4.40
2022-12-25T08:39:12.067Z,4.47
2022-12-25T08:41:40.400Z,3.90
2022-12-25T08:44:12.906Z,3.87
2022-12-25T08:46:41.156Z,6.90
2022-12-25T08:49:09.600Z,3.67
2022-12-25T08:51:39.023Z,4.80
2022-12-25T08:54:07.307Z,5.37
2022-12-25T08:56:36.505Z,6.17
2022-12-25T08:59:04.798Z,4.17
2022-12-25T09:01:34.559Z,3.40
2022-12-25T09:04:02.804Z,4.10
2022-12-25T09:06:31.073Z,3.73
2022-12-25T09:08:59.469Z,4.47
2022-12-25T09:11:27.581Z,4.27
2022-12-25T09:13:55.809Z,4.27
2022-12-25T09:16:24.555Z,4.93
2022-12-25T09:18:54.208Z,4.50
2022-12-25T09:21:22.448Z,3.83
2022-12-25T09:23:50.865Z,4.60
2022-12-25T09:26:20.558Z,4.40
2022-12-25T09:28:52.447Z,6.20
2022-12-25T09:31:22.985Z,6.93
2022-12-25T09:33:52.125Z,4.47
2022-12-25T09:36:23.742Z,4.13
2022-12-25T09:38:52.701Z,4.97
2022-12-25T09:41:28.190Z,4.20
2022-12-25T09:44:01.497Z,4.47
2022-12-25T09:46:37.110Z,4.90
2022-12-25T09:49:11.195Z,5.00
2022-12-25T09:51:45.178Z,4.60
2022-12-25T09:54:19.259Z,4.20
2022-12-25T09:56:47.649Z,4.80
2022-12-25T09:59:24.448Z,3.37
2022-12-25T10:02:05.241Z,3.20
2022-12-25T10:04:51.427Z,3.70
2022-12-25T10:07:29.883Z,4.47
2022-12-25T10:10:07.667Z,4.00
2022-12-25T10:12:46.734Z,5.40
2022-12-25T10:15:36.714Z,9.33
2022-12-25T10:18:36.011Z,4.90
2022-12-25T10:21:12.609Z,12.63
2022-12-25T10:23:47.557Z,19.60
2022-12-25T10:26:17.941Z,5.00
2022-12-25T10:28:48.458Z,4.00
2022-12-25T10:31:21.337Z,3.80
2022-12-25T10:33:50.830Z,3.17
2022-12-25T10:36:20.424Z,3.10
2022-12-25T10:38:50.175Z,3.00
2022-12-25T10:41:30.631Z,4.20
2022-12-25T10:43:59.169Z,5.70
2022-12-25T10:46:29.483Z,6.00
2022-12-25T10:48:59.884Z,5.37
2022-12-25T10:51:31.135Z,4.10
2022-12-25T10:54:02.578Z,4.30
2022-12-25T10:56:31.282Z,4.37
2022-12-25T10:59:06.450Z,3.93
2022-12-25T11:01:34.879Z,4.43
2022-12-25T11:04:04.463Z,4.60
2022-12-25T11:06:34.585Z,4.90
2022-12-25T11:09:04.465Z,4.33
2022-12-25T11:11:32.748Z,5.30
2022-12-25T11:14:02.944Z,4.40
2022-12-25T11:16:33.791Z,4.27
2022-12-25T11:19:02.411Z,3.60
2022-12-25T11:21:33.068Z,3.30
2022-12-25T11:24:04.824Z,10.60
2022-12-25T11:26:37.590Z,5.67
2022-12-25T20:24:16.878Z,4.10
2022-12-25T20:26:47.780Z,3.10
2022-12-25T20:29:16.494Z,4.67
2022-12-25T20:31:44.900Z,4.37
2022-12-25T20:34:13.220Z,4.10
2022-12-25T20:36:41.597Z,3.87
2022-12-25T20:39:12.545Z,3.63
2022-12-25T20:41:42.584Z,3.63
2022-12-25T20:44:10.983Z,3.50
2022-12-25T20:46:39.437Z,3.47
2022-12-25T20:49:07.845Z,2.90
2022-12-25T20:51:36.304Z,2.90
2022-12-25T20:54:08.476Z,3.10
2022-12-25T20:56:37.341Z,3.33
2022-12-25T20:59:07.251Z,3.50
2022-12-25T21:01:35.598Z,3.30
2022-12-25T21:04:04.011Z,2.90
2022-12-25T21:06:32.509Z,3.20
2022-12-25T21:09:00.928Z,3.30
2022-12-25T21:11:31.192Z,2.53
2022-12-25T21:13:59.932Z,3.23
2022-12-25T21:16:30.025Z,2.60
2022-12-25T21:18:58.338Z,3.00
2022-12-25T21:21:26.793Z,2.50
2022-12-25T21:23:57.055Z,2.53
2022-12-25T21:26:27.628Z,2.87
2022-12-25T21:29:00.112Z,2.60
2022-12-25T21:31:31.213Z,2.70
2022-12-25T21:33:59.230Z,2.30
2022-12-25T21:36:29.936Z,2.40
2022-12-25T21:38:59.868Z,3.17
2022-12-25T21:41:29.692Z,2.43
2022-12-25T21:43:58.529Z,2.47
2022-12-25T21:46:27.946Z,2.57
2022-12-25T21:48:58.343Z,2.73
2022-12-25T21:51:46.301Z,3.80
2022-12-25T21:54:15.481Z,2.77
2022-12-25T21:56:47.074Z,2.47
2022-12-25T21:59:16.964Z,2.70
2022-12-25T22:01:45.841Z,2.40
2022-12-25T22:04:16.971Z,2.47
2022-12-25T22:07:03.087Z,2.10
2022-12-25T22:09:31.707Z,2.27
2022-12-25T22:12:18.188Z,2.60
2022-12-25T22:14:55.357Z,2.10
2022-12-25T22:17:44.314Z,2.50
2022-12-25T22:20:16.389Z,2.80
2022-12-25T22:22:45.097Z,2.20
2022-12-25T22:25:14.289Z,2.23
2022-12-25T22:27:43.967Z,2.33
2022-12-25T22:30:15.093Z,1.77
2022-12-25T22:32:43.577Z,2.20
2022-12-25T22:35:13.995Z,2.43
2022-12-25T22:37:42.971Z,2.30
2022-12-25T22:40:13.460Z,2.10
2022-12-25T22:42:42.042Z,2.33
2022-12-25T22:45:11.823Z,2.97
2022-12-25T22:47:40.511Z,2.07
2022-12-25T22:50:10.268Z,2.60
2022-12-25T22:52:40.258Z,2.23
2022-12-25T22:55:10.063Z,2.20
2022-12-25T22:57:38.379Z,2.97
2022-12-25T23:00:08.985Z,1.97
2022-12-25T23:02:37.519Z,1.87
2022-12-25T23:05:06.610Z,1.80
2022-12-25T23:07:34.930Z,1.40
2022-12-25T23:10:05.535Z,1.70
2022-12-25T23:12:51.180Z,1.60
2022-12-25T23:18:55.105Z,1.70
2022-12-25T23:21:41.029Z,1.30
2022-12-25T23:24:28.228Z,1.70
2022-12-25T23:26:57.900Z,1.67
2022-12-25T23:29:37.630Z,1.67
2022-12-25T23:32:07.376Z,1.23
2022-12-25T23:34:38.007Z,1.50
2022-12-25T23:37:06.721Z,2.40
2022-12-25T23:39:35.023Z,1.50
2022-12-25T23:42:05.221Z,1.53
2022-12-25T23:44:33.503Z,1.40
2022-12-25T23:47:01.934Z,1.57
2022-12-25T23:49:30.723Z,1.10
2022-12-25T23:51:58.986Z,1.57
2022-12-25T23:54:28.916Z,1.50
2022-12-25T23:56:58.180Z,1.43
2022-12-25T23:59:29.262Z,1.27
